• Join FlightAware (Why Join?)
  • Login
  • US Flag 
11:26AM EDT


 

Airport Tracker/Info


-or-


 

Live Flight TrackerFlight Track Log ✈ LIA553 ✈ 17-May-2013 ✈ TQPF / AXA - TAPA / ANU

Flight Track Log - Related Links

Times and Time Zones

All times are in EDT time to prevent confusion due to time zone crossing. See the LIA553 flight status page for this flight to view local times or setup timezone preferences in your user account.

Time Position Orientation Groundspeed Altitude Reporting Facility
EDT Latitude Longitude Course Direction KTS MPH feet Rate Location/Type
02:59PM 17.3642 -62.1504 131° Southeast  Level FlightAware Approximate
03:00PM 17.3199 -62.0882 125° Southeast  Level FlightAware Approximate
03:01PM 17.2774 -62.0244 125° Southeast  Level FlightAware Approximate
03:02PM 17.2338 -61.9617 128° Southeast  Level FlightAware Approximate
03:03PM 17.1880 -61.9006 128° Southeast  Level FlightAware Approximate
03:04PM 17.1427 -61.8391 125° Southeast  Level FlightAware Approximate
03:05PM 17.1367 -61.7927 90° East  Level Estimated
03:06PM 17.1367 -61.7927 90° East  Level Estimated
03:07PM 17.1367 -61.7927 90° East  Level Estimated
03:08PM 17.1367 -61.7927 90° East  Level Estimated
03:09PM 17.1367 -61.7927 90° East  Level Estimated
03:10PM 17.1367 -61.7927 90° East  Level Estimated
03:11PM 17.1367 -61.7927 90° East  Level Estimated
03:12PM 17.1367 -61.7927 90° East  Level Estimated
03:13PM 17.1367 -61.7927 90° East  Level Estimated
03:14PM 17.1367 -61.7927 90° East  Level Estimated
03:15PM 17.1367 -61.7927 90° East  Level Estimated
03:16PM 17.1367 -61.7927 90° East  Level Estimated
03:17PM 17.1367 -61.7927 90° East  Level Estimated
03:18PM 17.1367 -61.7927 90° East  Level Estimated
03:19PM 17.1367 -61.7927 90° East  Level Estimated
03:20PM 17.1367 -61.7927 90° East  Level Estimated
03:21PM 17.1367 -61.7927 90° East  Level Estimated